sensor_id;sensor_type;location;lat;lon;timestamp;P1;durP1;ratioP1;P2;durP2;ratioP2
8466;SDS011;4270;48.148;11.648;2023-03-01T00:01:05;19.37;;;12.13;;
8466;SDS011;4270;48.148;11.648;2023-03-01T00:03:31;21.57;;;13.63;;
8466;SDS011;4270;48.148;11.648;2023-03-01T00:05:56;23.23;;;13.30;;
8466;SDS011;4270;48.148;11.648;2023-03-01T00:08:22;20.50;;;12.90;;
8466;SDS011;4270;48.148;11.648;2023-03-01T00:10:47;23.13;;;13.50;;
8466;SDS011;4270;48.148;11.648;2023-03-01T00:13:12;24.37;;;14.53;;
8466;SDS011;4270;48.148;11.648;2023-03-01T00:15:38;20.90;;;13.80;;
8466;SDS011;4270;48.148;11.648;2023-03-01T00:18:03;23.10;;;12.03;;
8466;SDS011;4270;48.148;11.648;2023-03-01T00:20:28;21.63;;;13.87;;
8466;SDS011;4270;48.148;11.648;2023-03-01T00:22:54;21.53;;;13.60;;
8466;SDS011;4270;48.148;11.648;2023-03-01T00:25:19;18.57;;;12.97;;
8466;SDS011;4270;48.148;11.648;2023-03-01T00:27:44;21.87;;;12.77;;
8466;SDS011;4270;48.148;11.648;2023-03-01T00:30:11;20.97;;;13.63;;
8466;SDS011;4270;48.148;11.648;2023-03-01T00:32:36;26.40;;;14.53;;
8466;SDS011;4270;48.148;11.648;2023-03-01T00:35:02;22.90;;;14.60;;
8466;SDS011;4270;48.148;11.648;2023-03-01T00:37:27;29.53;;;14.50;;
8466;SDS011;4270;48.148;11.648;2023-03-01T00:39:52;24.83;;;14.23;;
8466;SDS011;4270;48.148;11.648;2023-03-01T00:42:18;21.90;;;13.40;;
8466;SDS011;4270;48.148;11.648;2023-03-01T00:44:43;22.00;;;12.70;;
8466;SDS011;4270;48.148;11.648;2023-03-01T00:47:08;21.60;;;13.30;;
8466;SDS011;4270;48.148;11.648;2023-03-01T00:49:33;23.27;;;13.40;;
8466;SDS011;4270;48.148;11.648;2023-03-01T00:51:59;20.93;;;13.40;;
8466;SDS011;4270;48.148;11.648;2023-03-01T00:54:24;24.40;;;13.60;;
8466;SDS011;4270;48.148;11.648;2023-03-01T00:56:49;27.20;;;14.30;;
8466;SDS011;4270;48.148;11.648;2023-03-01T00:59:14;22.00;;;13.10;;
8466;SDS011;4270;48.148;11.648;2023-03-01T01:01:40;26.40;;;15.23;;
8466;SDS011;4270;48.148;11.648;2023-03-01T01:04:06;23.97;;;13.43;;
8466;SDS011;4270;48.148;11.648;2023-03-01T01:06:36;19.40;;;12.43;;
8466;SDS011;4270;48.148;11.648;2023-03-01T01:09:02;19.53;;;12.43;;
8466;SDS011;4270;48.148;11.648;2023-03-01T01:11:28;25.20;;;14.40;;
8466;SDS011;4270;48.148;11.648;2023-03-01T01:13:54;28.73;;;14.30;;
8466;SDS011;4270;48.148;11.648;2023-03-01T01:16:20;23.67;;;13.07;;
8466;SDS011;4270;48.148;11.648;2023-03-01T01:18:45;24.73;;;15.80;;
8466;SDS011;4270;48.148;11.648;2023-03-01T01:21:14;23.50;;;12.57;;
8466;SDS011;4270;48.148;11.648;2023-03-01T01:23:41;25.50;;;14.10;;
8466;SDS011;4270;48.148;11.648;2023-03-01T01:26:08;27.80;;;14.27;;
8466;SDS011;4270;48.148;11.648;2023-03-01T01:28:33;22.57;;;13.70;;
8466;SDS011;4270;48.148;11.648;2023-03-01T01:30:59;19.80;;;13.57;;
8466;SDS011;4270;48.148;11.648;2023-03-01T01:33:24;22.63;;;12.93;;
8466;SDS011;4270;48.148;11.648;2023-03-01T01:35:49;23.63;;;13.67;;
8466;SDS011;4270;48.148;11.648;2023-03-01T01:38:15;23.27;;;13.60;;
8466;SDS011;4270;48.148;11.648;2023-03-01T01:40:46;19.70;;;12.23;;
8466;SDS011;4270;48.148;11.648;2023-03-01T01:43:23;24.93;;;13.20;;
8466;SDS011;4270;48.148;11.648;2023-03-01T01:45:48;23.50;;;13.37;;
8466;SDS011;4270;48.148;11.648;2023-03-01T01:48:16;21.30;;;13.27;;
8466;SDS011;4270;48.148;11.648;2023-03-01T01:50:41;19.80;;;12.67;;
8466;SDS011;4270;48.148;11.648;2023-03-01T01:53:10;26.23;;;12.83;;
8466;SDS011;4270;48.148;11.648;2023-03-01T01:55:37;20.83;;;11.90;;
8466;SDS011;4270;48.148;11.648;2023-03-01T01:58:05;19.50;;;12.70;;
8466;SDS011;4270;48.148;11.648;2023-03-01T02:00:31;23.60;;;14.57;;
8466;SDS011;4270;48.148;11.648;2023-03-01T02:03:01;26.23;;;14.17;;
8466;SDS011;4270;48.148;11.648;2023-03-01T02:08:05;20.60;;;13.00;;
8466;SDS011;4270;48.148;11.648;2023-03-01T02:10:32;21.10;;;12.97;;
8466;SDS011;4270;48.148;11.648;2023-03-01T02:12:58;21.50;;;13.70;;
8466;SDS011;4270;48.148;11.648;2023-03-01T02:15:23;24.33;;;14.60;;
8466;SDS011;4270;48.148;11.648;2023-03-01T02:17:49;21.73;;;13.33;;
8466;SDS011;4270;48.148;11.648;2023-03-01T02:22:39;21.60;;;12.70;;
8466;SDS011;4270;48.148;11.648;2023-03-01T02:27:51;19.77;;;12.40;;
8466;SDS011;4270;48.148;11.648;2023-03-01T02:30:19;23.50;;;13.47;;
8466;SDS011;4270;48.148;11.648;2023-03-01T02:32:45;24.30;;;14.03;;
8466;SDS011;4270;48.148;11.648;2023-03-01T02:35:12;21.00;;;13.43;;
8466;SDS011;4270;48.148;11.648;2023-03-01T02:37:38;21.87;;;12.70;;
8466;SDS011;4270;48.148;11.648;2023-03-01T02:40:06;21.30;;;13.77;;
8466;SDS011;4270;48.148;11.648;2023-03-01T02:42:33;22.80;;;14.93;;
8466;SDS011;4270;48.148;11.648;2023-03-01T02:45:00;23.80;;;14.30;;
8466;SDS011;4270;48.148;11.648;2023-03-01T02:47:25;19.60;;;12.23;;
8466;SDS011;4270;48.148;11.648;2023-03-01T02:49:51;21.50;;;13.73;;
8466;SDS011;4270;48.148;11.648;2023-03-01T02:52:24;26.53;;;14.47;;
8466;SDS011;4270;48.148;11.648;2023-03-01T02:55:04;22.60;;;13.23;;
8466;SDS011;4270;48.148;11.648;2023-03-01T02:57:31;23.37;;;14.17;;
8466;SDS011;4270;48.148;11.648;2023-03-01T02:59:59;23.53;;;13.50;;
8466;SDS011;4270;48.148;11.648;2023-03-01T03:02:27;24.10;;;13.40;;
8466;SDS011;4270;48.148;11.648;2023-03-01T03:05:07;20.80;;;13.47;;
8466;SDS011;4270;48.148;11.648;2023-03-01T03:07:33;19.90;;;13.33;;
8466;SDS011;4270;48.148;11.648;2023-03-01T03:09:59;23.77;;;14.73;;
8466;SDS011;4270;48.148;11.648;2023-03-01T03:12:25;21.20;;;13.47;;
8466;SDS011;4270;48.148;11.648;2023-03-01T03:14:51;26.73;;;13.93;;
8466;SDS011;4270;48.148;11.648;2023-03-01T03:17:16;19.90;;;13.50;;
8466;SDS011;4270;48.148;11.648;2023-03-01T03:19:41;22.67;;;13.97;;
8466;SDS011;4270;48.148;11.648;2023-03-01T03:22:10;21.30;;;13.00;;
8466;SDS011;4270;48.148;11.648;2023-03-01T03:24:35;22.90;;;13.37;;
8466;SDS011;4270;48.148;11.648;2023-03-01T03:27:03;24.50;;;14.43;;
8466;SDS011;4270;48.148;11.648;2023-03-01T03:29:28;22.47;;;14.07;;
8466;SDS011;4270;48.148;11.648;2023-03-01T03:31:53;21.30;;;12.37;;
8466;SDS011;4270;48.148;11.648;2023-03-01T03:34:19;22.20;;;14.00;;
8466;SDS011;4270;48.148;11.648;2023-03-01T03:36:44;19.30;;;12.40;;
8466;SDS011;4270;48.148;11.648;2023-03-01T03:39:09;19.50;;;12.27;;
8466;SDS011;4270;48.148;11.648;2023-03-01T03:41:34;22.30;;;14.20;;
8466;SDS011;4270;48.148;11.648;2023-03-01T03:44:00;25.83;;;14.90;;
8466;SDS011;4270;48.148;11.648;2023-03-01T03:46:25;18.33;;;11.97;;
8466;SDS011;4270;48.148;11.648;2023-03-01T03:48:50;23.63;;;13.80;;
8466;SDS011;4270;48.148;11.648;2023-03-01T03:51:17;21.33;;;12.87;;
8466;SDS011;4270;48.148;11.648;2023-03-01T03:53:43;25.27;;;14.30;;
8466;SDS011;4270;48.148;11.648;2023-03-01T03:56:08;19.17;;;13.00;;
8466;SDS011;4270;48.148;11.648;2023-03-01T03:58:33;23.70;;;13.17;;
8466;SDS011;4270;48.148;11.648;2023-03-01T04:00:59;21.77;;;13.17;;
8466;SDS011;4270;48.148;11.648;2023-03-01T04:03:26;24.47;;;14.23;;
8466;SDS011;4270;48.148;11.648;2023-03-01T04:05:51;22.37;;;13.73;;
8466;SDS011;4270;48.148;11.648;2023-03-01T04:08:17;25.67;;;13.20;;
8466;SDS011;4270;48.148;11.648;2023-03-01T04:10:45;22.77;;;14.10;;
8466;SDS011;4270;48.148;11.648;2023-03-01T04:13:12;26.13;;;15.00;;
8466;SDS011;4270;48.148;11.648;2023-03-01T04:15:37;20.77;;;13.30;;
8466;SDS011;4270;48.148;11.648;2023-03-01T04:18:04;22.07;;;14.00;;
8466;SDS011;4270;48.148;11.648;2023-03-01T04:20:30;24.70;;;13.80;;
8466;SDS011;4270;48.148;11.648;2023-03-01T04:23:00;18.60;;;12.70;;
8466;SDS011;4270;48.148;11.648;2023-03-01T04:25:35;25.00;;;15.07;;
8466;SDS011;4270;48.148;11.648;2023-03-01T04:28:00;26.67;;;14.47;;
8466;SDS011;4270;48.148;11.648;2023-03-01T04:30:26;23.80;;;13.87;;
8466;SDS011;4270;48.148;11.648;2023-03-01T04:32:51;22.77;;;14.33;;
8466;SDS011;4270;48.148;11.648;2023-03-01T04:35:16;24.37;;;15.47;;
8466;SDS011;4270;48.148;11.648;2023-03-01T04:37:41;24.87;;;15.20;;
8466;SDS011;4270;48.148;11.648;2023-03-01T04:40:07;24.67;;;14.13;;
8466;SDS011;4270;48.148;11.648;2023-03-01T04:42:37;24.53;;;14.43;;
8466;SDS011;4270;48.148;11.648;2023-03-01T04:45:03;22.50;;;13.13;;
8466;SDS011;4270;48.148;11.648;2023-03-01T04:47:28;24.90;;;14.13;;
8466;SDS011;4270;48.148;11.648;2023-03-01T04:49:54;26.33;;;15.73;;
8466;SDS011;4270;48.148;11.648;2023-03-01T04:52:19;22.83;;;13.10;;
8466;SDS011;4270;48.148;11.648;2023-03-01T04:54:44;29.03;;;15.37;;
8466;SDS011;4270;48.148;11.648;2023-03-01T04:57:09;23.20;;;13.47;;
8466;SDS011;4270;48.148;11.648;2023-03-01T04:59:35;22.67;;;12.17;;
8466;SDS011;4270;48.148;11.648;2023-03-01T05:02:01;21.50;;;13.33;;
8466;SDS011;4270;48.148;11.648;2023-03-01T05:04:26;21.13;;;13.10;;
8466;SDS011;4270;48.148;11.648;2023-03-01T05:06:51;22.60;;;13.80;;
8466;SDS011;4270;48.148;11.648;2023-03-01T05:09:18;25.67;;;13.60;;
8466;SDS011;4270;48.148;11.648;2023-03-01T05:11:43;20.83;;;13.07;;
8466;SDS011;4270;48.148;11.648;2023-03-01T05:14:09;24.13;;;14.03;;
8466;SDS011;4270;48.148;11.648;2023-03-01T05:16:34;20.40;;;12.93;;
8466;SDS011;4270;48.148;11.648;2023-03-01T05:19:01;28.87;;;15.00;;
8466;SDS011;4270;48.148;11.648;2023-03-01T05:21:36;22.67;;;13.57;;
8466;SDS011;4270;48.148;11.648;2023-03-01T05:24:21;26.53;;;15.00;;
8466;SDS011;4270;48.148;11.648;2023-03-01T05:26:47;23.77;;;14.97;;
8466;SDS011;4270;48.148;11.648;2023-03-01T05:29:13;25.87;;;14.67;;
8466;SDS011;4270;48.148;11.648;2023-03-01T05:31:38;24.10;;;14.80;;
8466;SDS011;4270;48.148;11.648;2023-03-01T05:34:03;22.90;;;14.07;;
8466;SDS011;4270;48.148;11.648;2023-03-01T05:36:29;22.20;;;14.20;;
8466;SDS011;4270;48.148;11.648;2023-03-01T05:38:54;22.93;;;13.77;;
8466;SDS011;4270;48.148;11.648;2023-03-01T05:41:20;24.80;;;14.57;;
8466;SDS011;4270;48.148;11.648;2023-03-01T05:43:45;29.00;;;14.57;;
8466;SDS011;4270;48.148;11.648;2023-03-01T05:46:11;23.30;;;14.23;;
8466;SDS011;4270;48.148;11.648;2023-03-01T05:48:38;28.30;;;14.10;;
8466;SDS011;4270;48.148;11.648;2023-03-01T05:51:03;23.23;;;13.40;;
8466;SDS011;4270;48.148;11.648;2023-03-01T05:53:29;27.83;;;14.10;;
8466;SDS011;4270;48.148;11.648;2023-03-01T05:55:54;25.03;;;13.40;;
8466;SDS011;4270;48.148;11.648;2023-03-01T05:58:20;28.43;;;14.47;;
8466;SDS011;4270;48.148;11.648;2023-03-01T06:00:46;23.20;;;14.17;;
8466;SDS011;4270;48.148;11.648;2023-03-01T06:03:12;20.37;;;12.60;;
8466;SDS011;4270;48.148;11.648;2023-03-01T06:05:39;21.10;;;12.50;;
8466;SDS011;4270;48.148;11.648;2023-03-01T06:08:04;24.30;;;14.43;;
8466;SDS011;4270;48.148;11.648;2023-03-01T06:10:29;24.40;;;13.90;;
8466;SDS011;4270;48.148;11.648;2023-03-01T06:12:55;22.67;;;13.67;;
8466;SDS011;4270;48.148;11.648;2023-03-01T06:15:20;26.40;;;13.43;;
8466;SDS011;4270;48.148;11.648;2023-03-01T06:17:46;29.40;;;13.70;;
8466;SDS011;4270;48.148;11.648;2023-03-01T06:22:37;24.97;;;14.00;;
8466;SDS011;4270;48.148;11.648;2023-03-01T06:25:02;22.13;;;13.80;;
8466;SDS011;4270;48.148;11.648;2023-03-01T06:27:27;24.70;;;15.17;;
8466;SDS011;4270;48.148;11.648;2023-03-01T06:29:53;27.83;;;14.23;;
8466;SDS011;4270;48.148;11.648;2023-03-01T06:32:18;22.73;;;13.63;;
8466;SDS011;4270;48.148;11.648;2023-03-01T06:34:43;24.80;;;14.37;;
8466;SDS011;4270;48.148;11.648;2023-03-01T06:37:09;24.80;;;13.87;;
8466;SDS011;4270;48.148;11.648;2023-03-01T06:39:34;26.17;;;14.93;;
8466;SDS011;4270;48.148;11.648;2023-03-01T06:41:59;26.47;;;14.90;;
8466;SDS011;4270;48.148;11.648;2023-03-01T06:44:25;26.47;;;15.47;;
8466;SDS011;4270;48.148;11.648;2023-03-01T06:46:50;27.70;;;15.83;;
8466;SDS011;4270;48.148;11.648;2023-03-01T06:49:15;24.70;;;14.60;;
8466;SDS011;4270;48.148;11.648;2023-03-01T06:51:42;22.83;;;13.67;;
8466;SDS011;4270;48.148;11.648;2023-03-01T06:54:07;25.90;;;14.80;;
8466;SDS011;4270;48.148;11.648;2023-03-01T06:56:33;26.40;;;15.57;;
8466;SDS011;4270;48.148;11.648;2023-03-01T06:58:58;26.13;;;14.90;;
8466;SDS011;4270;48.148;11.648;2023-03-01T07:01:23;29.30;;;15.83;;
8466;SDS011;4270;48.148;11.648;2023-03-01T07:03:49;24.33;;;14.90;;
8466;SDS011;4270;48.148;11.648;2023-03-01T07:06:14;29.17;;;14.80;;
8466;SDS011;4270;48.148;11.648;2023-03-01T07:08:39;27.50;;;15.40;;
8466;SDS011;4270;48.148;11.648;2023-03-01T07:11:05;30.57;;;16.77;;
8466;SDS011;4270;48.148;11.648;2023-03-01T07:13:31;30.47;;;14.10;;
8466;SDS011;4270;48.148;11.648;2023-03-01T07:15:56;26.20;;;15.60;;
8466;SDS011;4270;48.148;11.648;2023-03-01T07:18:21;22.27;;;14.27;;
8466;SDS011;4270;48.148;11.648;2023-03-01T07:20:46;26.57;;;16.83;;
8466;SDS011;4270;48.148;11.648;2023-03-01T07:23:12;27.20;;;14.70;;
8466;SDS011;4270;48.148;11.648;2023-03-01T07:25:37;25.80;;;13.97;;
8466;SDS011;4270;48.148;11.648;2023-03-01T07:28:02;30.07;;;15.50;;
8466;SDS011;4270;48.148;11.648;2023-03-01T07:30:27;23.27;;;14.80;;
8466;SDS011;4270;48.148;11.648;2023-03-01T07:32:53;29.30;;;15.37;;
8466;SDS011;4270;48.148;11.648;2023-03-01T07:35:20;23.10;;;13.60;;
8466;SDS011;4270;48.148;11.648;2023-03-01T07:37:45;30.23;;;18.00;;
8466;SDS011;4270;48.148;11.648;2023-03-01T07:40:11;23.90;;;14.17;;
8466;SDS011;4270;48.148;11.648;2023-03-01T07:42:36;27.90;;;14.27;;
8466;SDS011;4270;48.148;11.648;2023-03-01T07:45:02;24.10;;;14.00;;
8466;SDS011;4270;48.148;11.648;2023-03-01T07:47:27;28.27;;;16.17;;
8466;SDS011;4270;48.148;11.648;2023-03-01T07:49:52;23.57;;;14.30;;
8466;SDS011;4270;48.148;11.648;2023-03-01T07:52:18;27.07;;;15.70;;
8466;SDS011;4270;48.148;11.648;2023-03-01T07:54:43;28.00;;;15.30;;
8466;SDS011;4270;48.148;11.648;2023-03-01T07:57:11;24.80;;;15.83;;
8466;SDS011;4270;48.148;11.648;2023-03-01T07:59:36;28.97;;;14.90;;
8466;SDS011;4270;48.148;11.648;2023-03-01T08:02:02;29.47;;;15.43;;
8466;SDS011;4270;48.148;11.648;2023-03-01T08:04:27;23.07;;;14.27;;
8466;SDS011;4270;48.148;11.648;2023-03-01T08:06:53;29.30;;;15.17;;
8466;SDS011;4270;48.148;11.648;2023-03-01T08:09:18;27.57;;;15.40;;
8466;SDS011;4270;48.148;11.648;2023-03-01T08:11:43;26.73;;;14.50;;
8466;SDS011;4270;48.148;11.648;2023-03-01T08:14:09;25.27;;;13.80;;
8466;SDS011;4270;48.148;11.648;2023-03-01T08:16:35;24.57;;;14.90;;
8466;SDS011;4270;48.148;11.648;2023-03-01T08:19:04;24.53;;;14.80;;
8466;SDS011;4270;48.148;11.648;2023-03-01T08:21:30;23.90;;;14.00;;
8466;SDS011;4270;48.148;11.648;2023-03-01T08:23:55;24.80;;;14.80;;
8466;SDS011;4270;48.148;11.648;2023-03-01T08:26:20;27.57;;;15.00;;
8466;SDS011;4270;48.148;11.648;2023-03-01T08:28:47;28.30;;;15.40;;
8466;SDS011;4270;48.148;11.648;2023-03-01T08:31:20;25.43;;;14.00;;
8466;SDS011;4270;48.148;11.648;2023-03-01T08:33:46;28.70;;;15.77;;
8466;SDS011;4270;48.148;11.648;2023-03-01T08:36:15;24.27;;;14.87;;
8466;SDS011;4270;48.148;11.648;2023-03-01T08:38:41;27.53;;;16.13;;
8466;SDS011;4270;48.148;11.648;2023-03-01T08:41:06;29.13;;;16.87;;
8466;SDS011;4270;48.148;11.648;2023-03-01T08:43:31;26.30;;;14.90;;
8466;SDS011;4270;48.148;11.648;2023-03-01T08:45:57;24.40;;;15.30;;
8466;SDS011;4270;48.148;11.648;2023-03-01T08:48:22;28.50;;;15.77;;
8466;SDS011;4270;48.148;11.648;2023-03-01T08:50:47;25.73;;;15.63;;
8466;SDS011;4270;48.148;11.648;2023-03-01T08:53:12;25.83;;;15.80;;
8466;SDS011;4270;48.148;11.648;2023-03-01T08:55:38;34.03;;;16.33;;
8466;SDS011;4270;48.148;11.648;2023-03-01T08:58:03;23.10;;;14.77;;
8466;SDS011;4270;48.148;11.648;2023-03-01T09:00:28;26.07;;;16.13;;
8466;SDS011;4270;48.148;11.648;2023-03-01T09:02:53;28.37;;;16.07;;
8466;SDS011;4270;48.148;11.648;2023-03-01T09:05:18;24.60;;;16.00;;
8466;SDS011;4270;48.148;11.648;2023-03-01T09:07:44;25.03;;;15.07;;
8466;SDS011;4270;48.148;11.648;2023-03-01T09:10:09;26.93;;;15.40;;
8466;SDS011;4270;48.148;11.648;2023-03-01T09:12:34;26.80;;;16.07;;
8466;SDS011;4270;48.148;11.648;2023-03-01T09:15:00;27.10;;;16.53;;
8466;SDS011;4270;48.148;11.648;2023-03-01T09:17:25;22.37;;;15.00;;
8466;SDS011;4270;48.148;11.648;2023-03-01T09:19:50;36.37;;;15.90;;
8466;SDS011;4270;48.148;11.648;2023-03-01T09:22:15;26.30;;;14.90;;
8466;SDS011;4270;48.148;11.648;2023-03-01T09:24:41;30.17;;;15.80;;
8466;SDS011;4270;48.148;11.648;2023-03-01T09:27:06;28.63;;;15.10;;
8466;SDS011;4270;48.148;11.648;2023-03-01T09:29:34;30.60;;;17.73;;
8466;SDS011;4270;48.148;11.648;2023-03-01T09:31:59;24.80;;;14.83;;
8466;SDS011;4270;48.148;11.648;2023-03-01T09:34:25;24.87;;;15.87;;
8466;SDS011;4270;48.148;11.648;2023-03-01T09:36:50;27.63;;;16.40;;
8466;SDS011;4270;48.148;11.648;2023-03-01T09:39:16;30.63;;;15.97;;
8466;SDS011;4270;48.148;11.648;2023-03-01T09:41:50;23.90;;;15.47;;
8466;SDS011;4270;48.148;11.648;2023-03-01T09:46:53;27.90;;;16.30;;
8466;SDS011;4270;48.148;11.648;2023-03-01T09:49:19;27.30;;;15.77;;
8466;SDS011;4270;48.148;11.648;2023-03-01T09:52:30;26.40;;;15.70;;
8466;SDS011;4270;48.148;11.648;2023-03-01T09:54:34;26.87;;;15.77;;
8466;SDS011;4270;48.148;11.648;2023-03-01T09:57:10;26.17;;;15.27;;
8466;SDS011;4270;48.148;11.648;2023-03-01T09:59:47;26.70;;;16.00;;
8466;SDS011;4270;48.148;11.648;2023-03-01T10:02:23;22.90;;;14.20;;
8466;SDS011;4270;48.148;11.648;2023-03-01T10:04:50;26.80;;;14.93;;
8466;SDS011;4270;48.148;11.648;2023-03-01T10:10:00;24.23;;;15.43;;
8466;SDS011;4270;48.148;11.648;2023-03-01T10:12:35;23.70;;;15.10;;
8466;SDS011;4270;48.148;11.648;2023-03-01T10:19:53;28.63;;;17.47;;
8466;SDS011;4270;48.148;11.648;2023-03-01T10:22:29;26.30;;;16.70;;
8466;SDS011;4270;48.148;11.648;2023-03-01T10:24:56;29.53;;;16.70;;
8466;SDS011;4270;48.148;11.648;2023-03-01T10:29:49;24.93;;;15.73;;
8466;SDS011;4270;48.148;11.648;2023-03-01T10:32:17;26.10;;;16.93;;
8466;SDS011;4270;48.148;11.648;2023-03-01T10:34:43;26.93;;;16.17;;
8466;SDS011;4270;48.148;11.648;2023-03-01T10:37:15;26.60;;;16.60;;
8466;SDS011;4270;48.148;11.648;2023-03-01T10:44:52;27.67;;;16.87;;
8466;SDS011;4270;48.148;11.648;2023-03-01T10:47:27;31.10;;;17.50;;
8466;SDS011;4270;48.148;11.648;2023-03-01T10:49:53;29.40;;;17.70;;
8466;SDS011;4270;48.148;11.648;2023-03-01T10:52:20;26.30;;;16.70;;
8466;SDS011;4270;48.148;11.648;2023-03-01T10:54:56;28.20;;;18.07;;
8466;SDS011;4270;48.148;11.648;2023-03-01T10:57:33;31.03;;;17.97;;
8466;SDS011;4270;48.148;11.648;2023-03-01T11:00:13;27.47;;;17.70;;
8466;SDS011;4270;48.148;11.648;2023-03-01T11:05:28;25.27;;;18.00;;
8466;SDS011;4270;48.148;11.648;2023-03-01T11:07:56;28.57;;;18.33;;
8466;SDS011;4270;48.148;11.648;2023-03-01T11:10:31;26.20;;;17.40;;
8466;SDS011;4270;48.148;11.648;2023-03-01T11:15:34;28.80;;;19.77;;
8466;SDS011;4270;48.148;11.648;2023-03-01T11:18:00;27.40;;;18.17;;
8466;SDS011;4270;48.148;11.648;2023-03-01T11:20:27;25.73;;;17.03;;
8466;SDS011;4270;48.148;11.648;2023-03-01T11:22:55;28.90;;;17.17;;
8466;SDS011;4270;48.148;11.648;2023-03-01T11:25:32;26.33;;;16.00;;
8466;SDS011;4270;48.148;11.648;2023-03-01T11:27:58;27.77;;;18.17;;
8466;SDS011;4270;48.148;11.648;2023-03-01T11:30:28;26.87;;;17.77;;
8466;SDS011;4270;48.148;11.648;2023-03-01T11:38:27;28.93;;;17.63;;
8466;SDS011;4270;48.148;11.648;2023-03-01T11:48:40;28.17;;;17.40;;
8466;SDS011;4270;48.148;11.648;2023-03-01T12:06:30;20.83;;;15.30;;
8466;SDS011;4270;48.148;11.648;2023-03-01T12:09:17;23.37;;;15.70;;
8466;SDS011;4270;48.148;11.648;2023-03-01T12:17:17;24.80;;;16.77;;
8466;SDS011;4270;48.148;11.648;2023-03-01T12:27:14;28.70;;;18.37;;
8466;SDS011;4270;48.148;11.648;2023-03-01T12:35:09;29.60;;;18.03;;
8466;SDS011;4270;48.148;11.648;2023-03-01T12:48:32;28.77;;;17.97;;
8466;SDS011;4270;48.148;11.648;2023-03-01T12:51:03;28.90;;;18.20;;
8466;SDS011;4270;48.148;11.648;2023-03-01T12:53:31;24.87;;;16.37;;
8466;SDS011;4270;48.148;11.648;2023-03-01T12:56:01;27.17;;;17.07;;
8466;SDS011;4270;48.148;11.648;2023-03-01T12:58:28;28.37;;;17.67;;
8466;SDS011;4270;48.148;11.648;2023-03-01T13:01:11;27.07;;;17.13;;
8466;SDS011;4270;48.148;11.648;2023-03-01T13:09:41;27.43;;;17.70;;
8466;SDS011;4270;48.148;11.648;2023-03-01T13:11:46;26.37;;;17.47;;
8466;SDS011;4270;48.148;11.648;2023-03-01T13:14:34;27.97;;;17.77;;
8466;SDS011;4270;48.148;11.648;2023-03-01T13:17:00;25.20;;;17.00;;
8466;SDS011;4270;48.148;11.648;2023-03-01T13:19:26;29.73;;;19.27;;
8466;SDS011;4270;48.148;11.648;2023-03-01T13:21:52;29.07;;;17.33;;
8466;SDS011;4270;48.148;11.648;2023-03-01T13:29:54;30.50;;;18.70;;
8466;SDS011;4270;48.148;11.648;2023-03-01T13:34:49;28.83;;;17.17;;
8466;SDS011;4270;48.148;11.648;2023-03-01T13:37:20;34.73;;;18.23;;
8466;SDS011;4270;48.148;11.648;2023-03-01T13:39:46;28.57;;;18.20;;
8466;SDS011;4270;48.148;11.648;2023-03-01T13:47:34;29.03;;;17.93;;
8466;SDS011;4270;48.148;11.648;2023-03-01T13:50:02;28.20;;;17.90;;
8466;SDS011;4270;48.148;11.648;2023-03-01T13:55:40;28.53;;;17.50;;
8466;SDS011;4270;48.148;11.648;2023-03-01T13:58:19;29.43;;;17.80;;
8466;SDS011;4270;48.148;11.648;2023-03-01T14:00:45;28.20;;;17.27;;
8466;SDS011;4270;48.148;11.648;2023-03-01T14:05:36;27.27;;;17.00;;
8466;SDS011;4270;48.148;11.648;2023-03-01T14:08:03;32.37;;;17.90;;
8466;SDS011;4270;48.148;11.648;2023-03-01T14:10:35;30.33;;;17.57;;
8466;SDS011;4270;48.148;11.648;2023-03-01T14:13:12;31.40;;;17.60;;
8466;SDS011;4270;48.148;11.648;2023-03-01T14:15:43;27.50;;;17.70;;
8466;SDS011;4270;48.148;11.648;2023-03-01T14:18:14;27.57;;;17.80;;
8466;SDS011;4270;48.148;11.648;2023-03-01T14:20:43;26.30;;;17.23;;
8466;SDS011;4270;48.148;11.648;2023-03-01T14:23:17;27.90;;;19.13;;
8466;SDS011;4270;48.148;11.648;2023-03-01T14:25:47;25.93;;;16.63;;
8466;SDS011;4270;48.148;11.648;2023-03-01T14:28:17;26.70;;;16.57;;
8466;SDS011;4270;48.148;11.648;2023-03-01T14:30:53;26.00;;;16.83;;
8466;SDS011;4270;48.148;11.648;2023-03-01T14:35:55;30.20;;;16.93;;
8466;SDS011;4270;48.148;11.648;2023-03-01T14:38:21;24.30;;;17.30;;
8466;SDS011;4270;48.148;11.648;2023-03-01T14:40:47;27.23;;;17.17;;
8466;SDS011;4270;48.148;11.648;2023-03-01T14:43:15;25.47;;;16.80;;
8466;SDS011;4270;48.148;11.648;2023-03-01T14:45:46;24.60;;;15.07;;
8466;SDS011;4270;48.148;11.648;2023-03-01T14:48:11;25.00;;;16.47;;
8466;SDS011;4270;48.148;11.648;2023-03-01T14:50:40;25.07;;;15.03;;
8466;SDS011;4270;48.148;11.648;2023-03-01T14:53:06;26.30;;;16.07;;
8466;SDS011;4270;48.148;11.648;2023-03-01T14:55:34;29.70;;;15.77;;
8466;SDS011;4270;48.148;11.648;2023-03-01T14:58:02;25.57;;;15.40;;
8466;SDS011;4270;48.148;11.648;2023-03-01T15:00:28;22.10;;;14.13;;
8466;SDS011;4270;48.148;11.648;2023-03-01T15:02:55;29.07;;;16.43;;
8466;SDS011;4270;48.148;11.648;2023-03-01T15:05:32;23.83;;;16.03;;
8466;SDS011;4270;48.148;11.648;2023-03-01T15:07:58;24.07;;;14.40;;
8466;SDS011;4270;48.148;11.648;2023-03-01T15:10:26;23.13;;;14.93;;
8466;SDS011;4270;48.148;11.648;2023-03-01T15:12:52;25.70;;;14.50;;
8466;SDS011;4270;48.148;11.648;2023-03-01T15:17:56;27.10;;;16.80;;
8466;SDS011;4270;48.148;11.648;2023-03-01T15:20:24;23.83;;;13.63;;
8466;SDS011;4270;48.148;11.648;2023-03-01T15:22:51;25.37;;;15.70;;
8466;SDS011;4270;48.148;11.648;2023-03-01T15:25:20;26.93;;;16.40;;
8466;SDS011;4270;48.148;11.648;2023-03-01T15:27:47;24.30;;;14.63;;
8466;SDS011;4270;48.148;11.648;2023-03-01T15:30:17;28.10;;;14.63;;
8466;SDS011;4270;48.148;11.648;2023-03-01T15:32:43;25.93;;;15.43;;
8466;SDS011;4270;48.148;11.648;2023-03-01T15:37:53;21.53;;;13.93;;
8466;SDS011;4270;48.148;11.648;2023-03-01T15:42:44;26.03;;;13.87;;
8466;SDS011;4270;48.148;11.648;2023-03-01T15:47:40;25.33;;;14.87;;
8466;SDS011;4270;48.148;11.648;2023-03-01T15:50:16;26.83;;;14.50;;
8466;SDS011;4270;48.148;11.648;2023-03-01T15:52:42;23.60;;;14.07;;
8466;SDS011;4270;48.148;11.648;2023-03-01T15:55:17;21.10;;;13.20;;
8466;SDS011;4270;48.148;11.648;2023-03-01T15:57:43;24.17;;;15.20;;
8466;SDS011;4270;48.148;11.648;2023-03-01T16:00:09;24.50;;;15.00;;
8466;SDS011;4270;48.148;11.648;2023-03-01T16:02:36;24.97;;;14.70;;
8466;SDS011;4270;48.148;11.648;2023-03-01T16:05:02;22.90;;;13.97;;
8466;SDS011;4270;48.148;11.648;2023-03-01T16:07:28;24.00;;;14.87;;
8466;SDS011;4270;48.148;11.648;2023-03-01T16:09:53;22.53;;;13.47;;
8466;SDS011;4270;48.148;11.648;2023-03-01T16:12:18;22.73;;;14.33;;
8466;SDS011;4270;48.148;11.648;2023-03-01T16:14:46;21.97;;;13.70;;
8466;SDS011;4270;48.148;11.648;2023-03-01T16:17:12;21.00;;;13.40;;
8466;SDS011;4270;48.148;11.648;2023-03-01T16:19:38;23.37;;;14.30;;
8466;SDS011;4270;48.148;11.648;2023-03-01T16:22:03;27.17;;;14.50;;
8466;SDS011;4270;48.148;11.648;2023-03-01T16:24:28;20.27;;;12.60;;
8466;SDS011;4270;48.148;11.648;2023-03-01T16:26:54;27.83;;;16.00;;
8466;SDS011;4270;48.148;11.648;2023-03-01T16:29:19;34.27;;;16.80;;
8466;SDS011;4270;48.148;11.648;2023-03-01T16:31:44;27.37;;;15.23;;
8466;SDS011;4270;48.148;11.648;2023-03-01T16:34:09;25.80;;;15.47;;
8466;SDS011;4270;48.148;11.648;2023-03-01T16:36:35;28.47;;;15.30;;
8466;SDS011;4270;48.148;11.648;2023-03-01T16:39:01;24.00;;;15.20;;
8466;SDS011;4270;48.148;11.648;2023-03-01T16:41:28;29.17;;;14.87;;